M I D A S
Marine Information and Data Acquisition System
Tripno 676 of the Zeeleeuw from 2004-03-26 07:15:52 to 2004-03-26 16:29:29
Back to CruiseResearch ActivitiesStationsMapUnderway DataData graphs

EquipmentUnitsComment
TimeDGPSUTC
LatitudeDGPSDM.mWGS84
LongitudeDGPSDM.mWGS84
TemperatureSBE03/SBE38deg celciusITS90
ConductivitySBE21S/mITS90
SalinitySBE21 Practical Salinity Units
ChlorophylAChelsea fluorimeterg/lCalibrated in Aceton
Missing or incorrect values are displayed as -999
Sea surface data collected by the RV Zeeleeuw from 2004-03-26 07:15:52 to 2004-03-26 16:29:29
Time Latitude Longitude Temperature Conductivity Salinity ChlorophylA
2004-03-26 07:16:57 51°13.597 2°56.08 14.577001 4.193253 33.999354 1.140187
2004-03-26 07:17:57 51°13.628 2°55.982 14.592802 4.192831 33.99882 1.106477
2004-03-26 07:18:57 51°13.667 2°55.854 14.627325 4.192621 33.998881 1.140187
2004-03-26 07:19:57 51°13.689 2°55.762 14.733452 4.192304 33.997329 1.140187
2004-03-26 07:20:57 51°13.686 2°55.747 8.672243 3.413037 29.31805 15.06217
2004-03-26 07:21:57 51°13.722 2°55.734 8.213113 2.91418 26.980893 11.960905
2004-03-26 07:23:01 51°13.799 2°55.658 8.221309 2.770221 25.64056 11.65752
2004-03-26 07:24:01 51°13.91 2°55.576 8.20212 2.838303 26.367079 10.612529
2004-03-26 07:25:01 51°14.03 2°55.492 8.10633 3.068396 28.813225 12.972187
2004-03-26 07:26:01 51°14.161 2°55.39 8.104012 3.1163 29.348345 12.871059
2004-03-26 07:27:01 51°14.29 2°55.205 8.049126 3.016917 28.346204 11.927195
2004-03-26 07:28:01 51°14.388 2°54.941 8.02418 3.012181 28.33608 12.129452
2004-03-26 07:29:01 51°14.555 2°54.747 7.866108 3.228446 30.679952 15.06217
2004-03-26 07:30:01 51°14.766 2°54.644 7.81257 3.418348 32.761179 14.961042
2004-03-26 07:31:01 51°14.982 2°54.565 7.780495 3.417085 32.815312 13.3767
2004-03-26 07:32:01 51°15.194 2°54.489 7.754376 3.434151 33.011563 12.365418
2004-03-26 07:33:01 51°15.412 2°54.425 7.69501 3.440472 33.121188 11.65752
2004-03-26 07:34:01 51°15.633 2°54.363 7.648383 3.46249 33.425002 10.983332
2004-03-26 07:35:02 51°15.861 2°54.321 7.672211 3.474922 33.563192 10.983332
2004-03-26 07:36:01 51°16.078 2°54.288 7.742381 3.490303 33.685256 10.309144
2004-03-26 07:37:01 51°16.23 2°54.27 7.763455 3.48356 33.570935 11.08446
2004-03-26 07:38:01 51°16.266 2°54.284 7.71576 3.481031 33.537413 11.724939
2004-03-26 07:39:01 51°16.265 2°54.293 7.690247 3.467863 33.460039 10.477691
2004-03-26 07:40:01 51°16.255 2°54.299 7.684122 3.466599 33.46019 10.646238
2004-03-26 07:41:01 51°16.248 2°54.357 7.684317 3.477345 33.579479 10.241725
2004-03-26 07:42:01 51°16.243 2°54.418 7.706577 3.474606 33.54686 10.140597
2004-03-26 07:43:01 51°16.239 2°54.472 7.729023 3.446056 33.213628 10.915913
2004-03-26 07:44:01 51°16.235 2°54.545 7.730772 3.470602 33.461191 11.017042
2004-03-26 07:45:01 51°16.227 2°54.616 7.721056 3.481558 33.584224 10.915913
2004-03-26 07:46:01 51°16.221 2°54.682 7.729509 3.47766 33.545681 10.949623
2004-03-26 07:47:01 51°16.218 2°54.744 7.738252 3.473657 33.48908 11.724939
2004-03-26 07:48:01 51°16.216 2°54.808 7.737135 3.469127 33.439763 10.814785
2004-03-26 07:49:01 51°16.214 2°54.876 7.739807 3.46407 33.388836 11.185589
2004-03-26 07:50:01 51°16.208 2°54.944 7.742721 3.464281 33.387878 10.747366
2004-03-26 07:51:01 51°16.201 2°55.015 7.743352 3.463438 33.380462 11.455264
2004-03-26 07:52:01 51°16.196 2°55.084 7.745392 3.463227 33.374995 10.882204
2004-03-26 07:53:01 51°16.193 2°55.151 7.752239 3.462806 33.366471 10.781076
2004-03-26 07:54:01 51°16.196 2°55.214 7.747869 3.461436 33.351813 10.309144
2004-03-26 07:55:01 51°16.204 2°55.277 7.740244 3.462384 33.365973 9.466409
2004-03-26 07:56:01 51°16.212 2°55.343 7.749714 3.464175 33.382735 10.5114
2004-03-26 07:57:01 51°16.212 2°55.412 7.755978 3.464491 33.378089 10.140597
2004-03-26 07:58:01 51°16.201 2°55.482 7.748014 3.46249 33.356669 9.702375
2004-03-26 07:59:01 51°16.185 2°55.551 7.743838 3.459329 33.330869 10.309144
2004-03-26 08:00:02 51°16.174 2°55.619 7.750491 3.456379 33.300105 10.309144
2004-03-26 08:01:01 51°16.174 2°55.684 7.75457 3.457117 33.300786 9.837212
2004-03-26 08:02:01 51°16.175 2°55.751 7.74986 3.458486 33.31624 10.275435
2004-03-26 08:03:01 51°16.178 2°55.818 7.751802 3.457749 33.312356 10.309144
2004-03-26 08:04:01 51°16.182 2°55.885 7.750345 3.457328 33.307046 10.983332
2004-03-26 08:05:01 51°16.184 2°55.953 7.75491 3.456906 33.300134 10.578819
2004-03-26 08:06:01 51°16.188 2°56.021 7.7586 3.457854 33.305472 11.590101
2004-03-26 08:07:01 51°16.19 2°56.087 7.756949 3.457749 33.301142 11.792358
2004-03-26 08:08:01 51°16.199 2°56.151 7.75423 3.454378 33.269085 11.08446
2004-03-26 08:09:01 51°16.206 2°56.218 7.753939 3.451007 33.235427 11.893486
2004-03-26 08:10:01 51°16.211 2°56.285 7.756609 3.450375 33.227867 11.556392
2004-03-26 08:11:01 51°16.214 2°56.354 7.755832 3.449216 33.215474 11.69123
2004-03-26 08:12:01 51°16.211 2°56.423 7.760931 3.447846 33.197635 13.309281
2004-03-26 08:13:01 51°16.186 2°56.468 7.74986 3.444265 33.16572 12.567674
2004-03-26 08:14:01 51°16.155 2°56.474 7.755832 3.443106 33.152532 14.522819
2004-03-26 08:15:01 51°16.119 2°56.466 7.761708 3.443 33.146623 14.219435
2004-03-26 08:16:01 51°16.067 2°56.425 7.758163 3.443211 33.146484 14.893623
2004-03-26 08:17:01 51°16.024 2°56.343 7.750637 3.444159 33.161403 15.331845
2004-03-26 08:18:01 51°15.992 2°56.256 7.750977 3.445634 33.179566 15.365554
2004-03-26 08:19:01 51°15.969 2°56.163 7.752433 3.447846 33.201627 16.983606
2004-03-26 08:20:01 51°15.956 2°56.067 7.75321 3.449953 33.22416 15.432973
2004-03-26 08:21:01 51°15.949 2°55.971 7.754084 3.451323 33.237208 15.432973
2004-03-26 08:22:01 51°15.946 2°55.878 7.754618 3.452692 33.252655 15.837486
2004-03-26 08:23:01 51°15.947 2°55.785 7.754084 3.454483 33.271812 15.770067
2004-03-26 08:24:01 51°15.951 2°55.695 7.758212 3.455853 33.286462 15.399264
2004-03-26 08:25:01 51°15.959 2°55.608 7.762824 3.457854 33.300667 16.140871
2004-03-26 08:26:01 51°15.969 2°55.523 7.76161 3.45954 33.318697 15.197007
2004-03-26 08:27:01 51°15.979 2°55.438 7.76195 3.460699 33.331094 15.264426
2004-03-26 08:28:02 51°15.993 2°55.354 7.761125 3.461541 33.34011 14.185725
2004-03-26 08:29:01 51°16.005 2°55.273 7.763504 3.460804 33.331419 14.48911
2004-03-26 08:30:01 51°16.016 2°55.188 7.763164 3.461752 33.339959 14.657657
2004-03-26 08:31:01 51°16.026 2°55.104 7.760057 3.461541 33.340911 15.500392
2004-03-26 08:32:01 51°16.036 2°55.019 7.757192 3.460488 33.330442 15.399264
2004-03-26 08:33:01 51°16.047 2°54.934 7.756172 3.46112 33.340411 14.961042
2004-03-26 08:34:01 51°16.06 2°54.849 7.756609 3.46112 33.342817 14.758785
2004-03-26 08:35:01 51°16.067 2°54.762 7.757678 3.460488 33.336053 13.983469
2004-03-26 08:36:01 51°16.074 2°54.674 7.765203 3.460593 33.332371 13.882341
2004-03-26 08:37:01 51°16.081 2°54.583 7.765786 3.45975 33.318548 12.76993
2004-03-26 08:38:01 51°16.089 2°54.493 7.776903 3.457643 33.29041 13.275571
2004-03-26 08:39:01 51°16.1 2°54.406 7.778456 3.459224 33.300105 13.241862
2004-03-26 08:40:01 51°16.111 2°54.321 7.779427 3.456168 33.266643 13.275571
2004-03-26 08:41:02 51°16.124 2°54.238 7.780834 3.463121 33.343387 14.623947
2004-03-26 08:42:01 51°16.136 2°54.158 7.771514 3.464386 33.360114 14.927332
2004-03-26 08:43:02 51°16.151 2°54.08 7.762096 3.46428 33.367007 16.17458
2004-03-26 08:44:01 51°16.167 2°54.005 7.751753 3.464175 33.373904 16.107161
2004-03-26 08:45:01 51°16.182 2°53.927 7.745975 3.463543 33.372758 14.725076
2004-03-26 08:46:01 51°16.197 2°53.848 7.743546 3.462595 33.367426 15.129589
2004-03-26 08:47:01 51°16.209 2°53.769 7.747286 3.46249 33.365496 15.06217
2004-03-26 08:48:01 51°16.215 2°53.702 7.746946 3.463649 33.3779 14.354272
2004-03-26 08:49:01 51°16.215 2°53.641 7.749957 3.464281 33.382256 13.680084
2004-03-26 08:50:01 51°16.266 2°53.495 7.750491 3.464913 33.38581 13.34299
2004-03-26 08:51:01 51°16.423 2°53.253 7.741749 3.466598 33.405458 14.556529
2004-03-26 08:52:01 51°16.617 2°53.051 7.714643 3.462279 33.374481 12.601383
2004-03-26 08:53:01 51°16.812 2°52.859 7.690538 3.469127 33.470364 11.185589
2004-03-26 08:54:01 51°16.993 2°52.662 7.67367 3.491989 33.754537 12.567674
2004-03-26 08:55:01 51°17.181 2°52.467 7.69015 3.507476 33.902142 12.095742
2004-03-26 08:56:01 51°17.369 2°52.261 7.706577 3.512849 33.950052 13.477828
2004-03-26 08:57:02 51°17.56 2°52.049 7.730481 3.516958 33.980276 14.084597
2004-03-26 08:58:01 51°17.743 2°51.842 7.738058 3.519697 33.983506 13.814922
2004-03-26 08:59:01 51°17.929 2°51.632 7.716052 3.511058 33.904671 13.545247
2004-03-26 09:00:01 51°18.119 2°51.415 7.697829 3.502103 33.827305 13.039606
2004-03-26 09:01:01 51°18.31 2°51.195 7.690587 3.49673 33.781026 11.960905
2004-03-26 09:02:01 51°18.457 2°51.047 7.668467 3.487248 33.689807 11.893486
2004-03-26 09:03:01 51°18.514 2°51.013 7.651252 3.473552 33.563871 11.792358
2004-03-26 09:04:01 51°18.52 2°50.998 7.647313 3.460173 33.43158 10.578819
2004-03-26 09:05:01 51°18.531 2°51.026 7.644638 3.456697 33.398303 10.275435
2004-03-26 09:06:01 51°18.553 2°51.077 7.652955 3.453958 33.36569 9.769794
2004-03-26 09:07:01 51°18.571 2°51.128 7.655435 3.45027 33.320506 10.342853
2004-03-26 09:08:02 51°18.587 2°51.181 7.652322 3.448163 33.299516 9.702375
2004-03-26 09:09:01 51°18.609 2°51.23 7.64707 3.444055 33.260271 10.814785
2004-03-26 09:10:01 51°18.638 2°51.273 7.653879 3.446899 33.292384 11.050751
2004-03-26 09:11:01 51°18.666 2°51.318 7.652468 3.439314 33.206232 10.983332
2004-03-26 09:12:01 51°18.682 2°51.371 7.645464 3.422775 33.030577 10.949623
2004-03-26 09:13:01 51°18.699 2°51.419 7.633692 3.400865 32.805448 10.713657
2004-03-26 09:14:01 51°18.721 2°51.46 7.609363 3.385802 32.66394 10.342853
2004-03-26 09:15:01 51°18.745 2°51.503 7.608389 3.384327 32.656827 10.848494
2004-03-26 09:16:01 51°18.767 2°51.547 7.607757 3.390226 32.719206 11.050751
2004-03-26 09:17:01 51°18.788 2°51.593 7.619534 3.395387 32.770535 11.286717
2004-03-26 09:18:01 51°18.807 2°51.641 7.627124 3.393913 32.747622 10.781076
2004-03-26 09:19:02 51°18.827 2°51.689 7.629752 3.394755 32.751902 9.938341
2004-03-26 09:20:01 51°18.845 2°51.735 7.631941 3.391911 32.718293 11.050751
2004-03-26 09:21:02 51°18.862 2°51.784 7.627222 3.382115 32.612665 10.949623
2004-03-26 09:22:01 51°18.878 2°51.834 7.618901 3.38201 32.623349 10.443982
2004-03-26 09:23:02 51°18.894 2°51.886 7.620069 3.379798 32.601248 12.567674
2004-03-26 09:24:01 51°18.908 2°51.936 7.601429 3.369053 32.488639 10.915913
2004-03-26 09:25:01 51°18.922 2°51.986 7.582833 3.359047 32.401952 10.54511
2004-03-26 09:26:01 51°18.94 2°52.033 7.585657 3.355361 32.374242 11.11817
2004-03-26 09:27:01 51°18.96 2°52.077 7.580496 3.353991 32.358805 10.646238
2004-03-26 09:28:01 51°18.988 2°52.128 7.580788 3.353781 32.361244 10.309144
2004-03-26 09:29:01 51°19.009 2°52.159 7.585511 3.349989 32.319882 11.185589
2004-03-26 09:30:01 51°19.032 2°52.2 7.586679 3.348198 32.294477 9.769794
2004-03-26 09:31:01 51°19.051 2°52.245 7.587069 3.348198 32.292136 12.163161
2004-03-26 09:32:02 51°19.068 2°52.295 7.577283 3.346513 32.277229 12.028324
2004-03-26 09:33:01 51°19.078 2°52.348 7.578549 3.346092 32.277403 11.792358
2004-03-26 09:34:01 51°19.089 2°52.4 7.575578 3.344301 32.262147 12.196871
2004-03-26 09:35:02 51°19.105 2°52.448 7.570611 3.344406 32.266394 12.129452
2004-03-26 09:36:01 51°19.105 2°52.499 7.57402 3.34704 32.287545 12.095742
2004-03-26 09:37:01 51°19.08 2°52.523 7.579035 3.345565 32.27489 13.444118
2004-03-26 09:38:01 51°19.049 2°52.53 7.575481 3.344196 32.2579 12.736221
2004-03-26 09:39:01 51°18.988 2°52.525 7.577526 3.343564 32.245683 12.500255
2004-03-26 09:40:01 51°18.928 2°52.44 7.571683 3.33914 32.204599 13.444118
2004-03-26 09:41:01 51°18.88 2°52.343 7.561553 3.335348 32.171824 13.309281
2004-03-26 09:42:01 51°18.841 2°52.247 7.55376 3.338508 32.213414 14.152016
2004-03-26 09:43:02 51°18.808 2°52.152 7.547232 3.339245 32.228319 13.882341
2004-03-26 09:44:01 51°18.78 2°52.06 7.547086 3.341457 32.253555 13.410409
2004-03-26 09:45:01 51°18.751 2°51.969 7.543919 3.3423 32.264918 13.949759
2004-03-26 09:46:01 51°18.722 2°51.877 7.541045 3.345249 32.301183 14.253144
2004-03-26 09:47:01 51°18.691 2°51.785 7.54236 3.347145 32.320706 14.691366
2004-03-26 09:48:01 51°18.66 2°51.694 7.545478 3.34883 32.335626 13.612665
2004-03-26 09:49:01 51°18.628 2°51.605 7.542653 3.349884 32.347689 13.309281
2004-03-26 09:50:01 51°18.596 2°51.516 7.545527 3.349989 32.3496 13.747503
2004-03-26 09:51:01 51°18.564 2°51.426 7.553906 3.348936 32.33206 13.174443
2004-03-26 09:52:01 51°18.532 2°51.335 7.557851 3.35357 32.376992 13.107024
2004-03-26 09:53:01 51°18.5 2°51.245 7.557997 3.361786 32.462634 14.253144
2004-03-26 09:54:02 51°18.468 2°51.152 7.560579 3.369791 32.549189 13.275571
2004-03-26 09:55:02 51°18.437 2°51.061 7.558192 3.371371 32.566909 14.4554
2004-03-26 09:56:01 51°18.408 2°50.971 7.563014 3.376006 32.61343 13.275571
2004-03-26 09:57:01 51°18.378 2°50.877 7.570222 3.377691 32.625971 14.152016
2004-03-26 09:58:02 51°18.347 2°50.782 7.573192 3.379377 32.63772 14.185725
2004-03-26 09:59:02 51°18.316 2°50.689 7.580058 3.377375 32.612331 13.747503
2004-03-26 10:00:02 51°18.286 2°50.595 7.586339 3.374004 32.569135 12.062033
2004-03-26 10:01:02 51°18.256 2°50.501 7.592035 3.37906 32.619349 12.904768
2004-03-26 10:02:01 51°18.227 2°50.409 7.601283 3.37885 32.610787 12.938477
2004-03-26 10:03:01 51°18.197 2°50.317 7.601527 3.38201 32.640687 12.871059
2004-03-26 10:04:01 51°18.166 2°50.226 7.606686 3.384222 32.663588 13.174443
2004-03-26 10:05:01 51°18.134 2°50.134 7.609363 3.387592 32.691004 13.039606
2004-03-26 10:06:01 51°18.102 2°50.042 7.61165 3.398021 32.801912 13.140734
2004-03-26 10:07:01 51°18.071 2°49.951 7.622551 3.406237 32.88519 13.140734
2004-03-26 10:08:01 51°18.041 2°49.857 7.632281 3.409608 32.911778 13.140734
2004-03-26 10:09:01 51°18.014 2°49.764 7.646924 3.415191 32.956488 12.938477
2004-03-26 10:10:01 51°17.994 2°49.68 7.656067 3.420142 32.9952 12.500255
2004-03-26 10:11:01 51°17.997 2°49.564 7.654073 3.426357 33.064964 11.185589
2004-03-26 10:12:01 51°18.078 2°49.494 7.652468 3.4272 33.0716 11.893486
2004-03-26 10:13:01 51°18.194 2°49.615 7.654754 3.428253 33.083684 11.421554
2004-03-26 10:14:01 51°18.341 2°49.817 7.678969 3.415191 32.927886 11.893486
2004-03-26 10:15:01 51°18.451 2°50.08 7.654025 3.386644 32.630421 12.264289
2004-03-26 10:16:01 51°18.541 2°50.363 7.650571 3.379481 32.574272 13.747503
2004-03-26 10:17:01 51°18.633 2°50.646 7.650912 3.38085 32.581842 14.118306
2004-03-26 10:18:01 51°18.726 2°50.931 7.63053 3.383695 32.621698 13.578956
2004-03-26 10:19:01 51°18.818 2°51.217 7.644394 3.377901 32.567589 13.039606
2004-03-26 10:20:01 51°18.896 2°51.515 7.649064 3.372634 32.496355 13.039606
2004-03-26 10:21:01 51°18.975 2°51.812 7.656748 3.368948 32.456166 14.691366
2004-03-26 10:22:02 51°19.055 2°52.112 7.634909 3.349777 32.249812 14.219435
2004-03-26 10:23:01 51°19.132 2°52.4 7.623962 3.335663 32.109219 14.320563
2004-03-26 10:24:02 51°19.213 2°52.698 7.593544 3.327027 32.043329 14.657657
2004-03-26 10:25:02 51°19.293 2°52.995 7.605907 3.329871 32.081446 14.657657
2004-03-26 10:26:02 51°19.374 2°53.293 7.58444 3.330503 32.094399 14.859913
2004-03-26 10:27:02 51°19.447 2°53.597 7.569443 3.33282 32.132356 14.421691
2004-03-26 10:28:01 51°19.515 2°53.898 7.554003 3.325026 32.062217 14.286853
2004-03-26 10:29:01 51°19.585 2°54.205 7.543432 3.322814 32.056398 13.983469
2004-03-26 10:30:01 51°19.653 2°54.513 7.555124 3.320602 32.019571 14.893623
2004-03-26 10:31:01 51°19.721 2°54.821 7.543286 3.319128 32.018519 14.320563
2004-03-26 10:32:01 51°19.791 2°55.128 7.531398 3.31165 31.944737 13.848631
2004-03-26 10:33:02 51°19.861 2°55.441 7.523162 3.309122 31.926979 13.612665
2004-03-26 10:34:01 51°19.931 2°55.745 7.510198 3.3067 31.908795 13.781212
2004-03-26 10:35:01 51°20.002 2°56.056 7.508151 3.303751 31.881884 14.286853
2004-03-26 10:36:01 51°20.072 2°56.368 7.489332 3.301118 31.862979 14.084597
2004-03-26 10:37:02 51°20.143 2°56.687 7.50508 3.299433 31.849579 13.949759
2004-03-26 10:38:02 51°20.215 2°57.002 7.496109 3.298696 31.837835 15.399264
2004-03-26 10:39:01 51°20.286 2°57.312 7.483725 3.297748 31.836949 15.668939
2004-03-26 10:40:01 51°20.358 2°57.627 7.479433 3.29522 31.81607 14.48911
2004-03-26 10:41:02 51°20.428 2°57.943 7.479775 3.292903 31.798983 15.736358
2004-03-26 10:42:02 51°20.502 2°58.247 7.511026 3.29027 31.755407 13.34299
2004-03-26 10:43:02 51°20.591 2°58.537 7.519605 3.286057 31.671216 13.444118
2004-03-26 10:44:02 51°20.681 2°58.829 7.484164 3.274788 31.580685 13.578956
2004-03-26 10:45:02 51°20.771 2°59.123 7.449874 3.262256 31.481117 14.994751
2004-03-26 10:46:02 51°20.856 2°59.42 7.432405 3.252041 31.390195 13.91605
2004-03-26 10:47:02 51°20.934 2°59.72 7.434503 3.246775 31.346069 14.927332
2004-03-26 10:48:02 51°20.975 2°59.901 7.410928 3.246038 31.346555 14.421691
2004-03-26 10:49:02 51°20.987 2°59.975 7.441969 3.246249 31.345003 14.354272
2004-03-26 10:50:01 51°20.986 2°59.988 7.453972 3.247618 31.341385 13.444118
2004-03-26 10:51:01 51°20.974 2°59.991 7.458606 3.24846 31.343547 11.826067
2004-03-26 10:52:02 51°20.975 3°0.056 7.454899 3.248987 31.346894 13.410409
2004-03-26 10:53:03 51°20.973 3°0.128 7.44236 3.24846 31.34887 11.219298
2004-03-26 10:54:01 51°20.973 3°0.194 7.427183 3.247091 31.347926 12.23058
2004-03-26 10:55:01 51°20.978 3°0.259 7.422595 3.245933 31.34619 12.76993
2004-03-26 10:56:01 51°20.986 3°0.322 7.421423 3.245512 31.344728 13.477828
2004-03-26 10:57:01 51°20.995 3°0.384 7.429232 3.246881 31.351 12.533965
2004-03-26 10:58:01 51°21.004 3°0.447 7.43587 3.247196 31.350574 12.76993
2004-03-26 10:59:02 51°21.012 3°0.513 7.436211 3.247934 31.355413 11.826067
2004-03-26 11:00:03 51°21.021 3°0.577 7.442116 3.24825 31.354226 13.039606
2004-03-26 11:01:01 51°21.029 3°0.639 7.450362 3.248881 31.354895 10.814785
2004-03-26 11:02:02 51°21.038 3°0.704 7.454704 3.248881 31.354134 11.219298
2004-03-26 11:03:01 51°21.047 3°0.766 7.459143 3.249197 31.351426 10.781076
2004-03-26 11:04:02 51°21.057 3°0.83 7.461338 3.249092 31.344219 10.949623
2004-03-26 11:05:01 51°21.067 3°0.893 7.454704 3.248565 31.340872 11.11817
2004-03-26 11:06:02 51°21.076 3°0.957 7.453338 3.248144 31.340171 11.185589
2004-03-26 11:07:01 51°21.086 3°1.02 7.454509 3.247407 31.335332 11.826067
2004-03-26 11:08:01 51°21.096 3°1.083 7.444214 3.24667 31.331253 11.387845
2004-03-26 11:09:01 51°21.105 3°1.147 7.44597 3.245301 31.318899 11.927195
2004-03-26 11:10:01 51°21.116 3°1.211 7.440749 3.244458 31.309134 11.253007
2004-03-26 11:11:02 51°21.127 3°1.276 7.43382 3.24351 31.301282 11.994614
2004-03-26 11:12:02 51°21.137 3°1.341 7.431185 3.241826 31.290105 10.781076
2004-03-26 11:13:02 51°21.147 3°1.405 7.431136 3.240351 31.27738 10.949623
2004-03-26 11:14:02 51°21.157 3°1.471 7.433527 3.239403 31.264971 10.443982
2004-03-26 11:15:01 51°21.166 3°1.535 7.435577 3.238456 31.252564 10.5114
2004-03-26 11:16:02 51°21.177 3°1.603 7.428549 3.237508 31.246225 10.241725
2004-03-26 11:17:01 51°21.188 3°1.668 7.418397 3.235928 31.233889 11.387845
2004-03-26 11:18:03 51°21.199 3°1.736 7.416493 3.234665 31.22872 10.376563
2004-03-26 11:19:02 51°21.21 3°1.802 7.406973 3.233717 31.223894 12.399127
2004-03-26 11:20:02 51°21.221 3°1.87 7.410733 3.233296 31.222422 11.724939
2004-03-26 11:21:02 51°21.232 3°1.937 7.409854 3.233085 31.217895 10.848494
2004-03-26 11:22:01 51°21.241 3°2.004 7.415419 3.233822 31.219712 11.354136
2004-03-26 11:23:01 51°21.243 3°2.068 7.409121 3.233927 31.223113 10.477691
2004-03-26 11:24:02 51°21.226 3°2.103 7.381727 3.232348 31.226698 11.320426
2004-03-26 11:25:01 51°21.201 3°2.118 7.39042 3.232769 31.23576 12.399127
2004-03-26 11:26:02 51°21.158 3°2.128 7.385439 3.234138 31.244334 11.488973
2004-03-26 11:27:01 51°21.097 3°2.105 7.374938 3.234665 31.265924 13.444118
2004-03-26 11:28:01 51°21.035 3°2.061 7.364826 3.234876 31.272741 13.511537
2004-03-26 11:29:01 51°20.984 3°2.001 7.370932 3.234665 31.272768 12.76993
2004-03-26 11:30:01 51°20.944 3°1.932 7.368343 3.234665 31.272007 14.118306
2004-03-26 11:31:01 51°20.91 3°1.863 7.375817 3.235192 31.275363 13.140734
2004-03-26 11:32:01 51°20.877 3°1.796 7.370053 3.235192 31.273082 13.882341
2004-03-26 11:33:01 51°20.844 3°1.731 7.359647 3.234349 31.271667 14.994751
2004-03-26 11:34:02 51°20.81 3°1.666 7.358768 3.233296 31.262671 12.904768
2004-03-26 11:35:03 51°20.775 3°1.603 7.373668 3.233612 31.257691 13.309281
2004-03-26 11:36:02 51°20.74 3°1.541 7.397843 3.234665 31.259844 13.444118
2004-03-26 11:37:02 51°20.705 3°1.476 7.428744 3.237087 31.249308 11.960905
2004-03-26 11:38:03 51°20.671 3°1.408 7.419715 3.237824 31.248844 13.713794
2004-03-26 11:39:02 51°20.643 3°1.34 7.402189 3.23477 31.230604 13.309281
2004-03-26 11:40:01 51°20.619 3°1.271 7.368197 3.230031 31.208738 14.725076
2004-03-26 11:41:01 51°20.594 3°1.202 7.359354 3.226872 31.191616 13.713794
2004-03-26 11:42:01 51°20.569 3°1.134 7.370297 3.22624 31.182578 13.545247
2004-03-26 11:43:03 51°20.541 3°1.06 7.381923 3.226556 31.178377 14.387982
2004-03-26 11:44:02 51°20.513 3°0.992 7.388028 3.226872 31.174178 13.578956
2004-03-26 11:45:02 51°20.483 3°0.92 7.396329 3.226767 31.170021 14.118306
2004-03-26 11:46:01 51°20.453 3°0.849 7.415907 3.227925 31.167263 13.545247
2004-03-26 11:47:02 51°20.423 3°0.775 7.421325 3.228451 31.163052 13.814922
2004-03-26 11:48:02 51°20.395 3°0.702 7.435479 3.229399 31.159565 14.219435
2004-03-26 11:49:02 51°20.37 3°0.629 7.436406 3.229925 31.159897 14.556529
2004-03-26 11:50:03 51°20.346 3°0.556 7.429525 3.229925 31.162165 13.3767
2004-03-26 11:51:02 51°20.323 3°0.489 7.434162 3.229925 31.162922 13.3767
2004-03-26 11:52:02 51°20.299 3°0.423 7.433966 3.230136 31.165172 13.781212
2004-03-26 11:53:01 51°20.277 3°0.357 7.431331 3.230241 31.162516 14.623947
2004-03-26 11:54:01 51°20.253 3°0.289 7.427036 3.229715 31.16294 13.983469
2004-03-26 11:55:01 51°20.227 3°0.221 7.422546 3.229188 31.161096 13.174443
2004-03-26 11:56:01 51°20.203 3°0.152 7.430355 3.229399 31.160321 12.904768
2004-03-26 11:57:02 51°20.177 3°0.082 7.436211 3.22982 31.158016 13.005896
2004-03-26 11:58:02 51°20.156 3°0.026 7.435772 3.229083 31.149385 13.3767
2004-03-26 11:59:01 51°20.129 2°59.949 7.430843 3.228978 31.150527 13.444118
2004-03-26 12:00:03 51°20.126 2°59.833 7.414736 3.227714 31.141561 13.983469
2004-03-26 12:01:01 51°20.159 2°59.741 7.454557 3.226556 31.133719 13.713794
2004-03-26 12:02:03 51°20.205 2°59.684 7.430501 3.229399 31.146713 12.264289
2004-03-26 12:03:01 51°20.237 2°59.66 7.420447 3.227925 31.14608 12.533965
2004-03-26 12:04:03 51°20.273 2°59.67 7.422106 3.227714 31.150634 12.938477
2004-03-26 12:05:01 51°20.294 2°59.712 7.412197 3.228241 31.159288 12.500255
2004-03-26 12:06:01 51°20.291 2°59.777 7.41249 3.227609 31.158587 12.264289
2004-03-26 12:07:02 51°20.26 2°59.847 7.423961 3.228241 31.154749 12.399127
2004-03-26 12:08:03 51°20.22 2°59.889 7.420496 3.227925 31.149104 12.567674
2004-03-26 12:09:02 51°20.187 2°59.907 7.411611 3.227398 31.149527 13.208153
2004-03-26 12:10:01 51°20.158 2°59.912 7.415273 3.226766 31.144286 12.668802
2004-03-26 12:11:01 51°20.115 2°59.921 7.434845 3.227293 31.14084 11.792358
2004-03-26 12:12:01 51°20.06 2°59.92 7.454118 3.229504 31.143305 12.028324
2004-03-26 12:13:01 51°20.005 2°59.905 7.458558 3.231189 31.151477 12.972187
2004-03-26 12:14:01 51°19.961 2°59.886 7.444702 3.230662 31.151142 13.241862
2004-03-26 12:15:03 51°19.917 2°59.862 7.43465 3.228556 31.140737 14.48911
2004-03-26 12:16:01 51°19.847 2°59.796 7.432453 3.227925 31.140788 13.275571
2004-03-26 12:17:02 51°19.79 2°59.66 7.438358 3.227819 31.132863 14.657657
2004-03-26 12:18:01 51°19.773 2°59.536 7.452801 3.227924 31.127191 13.848631
2004-03-26 12:19:03 51°19.77 2°59.44 7.45846 3.229188 31.134645 13.477828
2004-03-26 12:20:02 51°19.767 2°59.376 7.459436 3.228977 31.128621 13.073315
2004-03-26 12:21:01 51°19.762 2°59.327 7.462704 3.228767 31.126373 12.736221
2004-03-26 12:22:03 51°19.755 2°59.282 7.473581 3.229399 31.124816 12.904768
2004-03-26 12:23:02 51°19.772 2°59.211 7.467289 3.23003 31.12477 13.275571
2004-03-26 12:24:02 51°19.781 2°59.156 7.461875 3.229293 31.130484 12.331708
2004-03-26 12:25:01 51°19.783 2°59.11 7.481384 3.229083 31.125972 11.69123
2004-03-26 12:26:01 51°19.781 2°59.07 7.498108 3.232768 31.13588 12.129452
2004-03-26 12:27:01 51°19.776 2°59.035 7.479433 3.232874 31.143792 12.837349
2004-03-26 12:28:02 51°19.77 2°59.003 7.466314 3.23161 31.145401 12.466546
2004-03-26 12:29:03 51°19.761 2°58.972 7.455972 3.230873 31.148859 12.331708
2004-03-26 12:30:01 51°19.75 2°58.944 7.454948 3.230662 31.148876 12.297999
2004-03-26 12:31:03 51°19.737 2°58.914 7.445043 3.230346 31.150035 13.005896
2004-03-26 12:32:02 51°19.723 2°58.885 7.449727 3.230136 31.151564 13.275571
2004-03-26 12:33:01 51°19.71 2°58.856 7.447044 3.230241 31.151177 12.635093
2004-03-26 12:34:01 51°19.695 2°58.826 7.473142 3.230768 31.14849 14.48911
2004-03-26 12:35:01 51°19.681 2°58.796 7.490259 3.23161 31.134836 13.174443
2004-03-26 12:36:01 51°19.665 2°58.767 7.493087 3.232452 31.142316 12.365418
2004-03-26 12:37:03 51°19.649 2°58.737 7.521554 3.234558 31.139138 12.365418
2004-03-26 12:38:03 51°19.632 2°58.708 7.498303 3.235611 31.146596 12.062033
2004-03-26 12:39:01 51°19.617 2°58.681 7.51205 3.235085 31.147768 12.365418
2004-03-26 12:40:03 51°19.601 2°58.651 7.518143 3.236033 31.149579 12.668802
2004-03-26 12:41:01 51°19.585 2°58.623 7.51902 3.236664 31.151038 11.488973
2004-03-26 12:42:01 51°19.57 2°58.594 7.526184 3.236454 31.147285 11.994614
2004-03-26 12:43:01 51°19.555 2°58.565 7.52477 3.237612 31.149834 14.084597
2004-03-26 12:44:01 51°19.566 2°58.503 7.542702 3.238033 31.147542 12.163161
2004-03-26 12:45:03 51°19.643 2°58.449 7.542799 3.238454 31.15429 13.241862
2004-03-26 12:46:02 51°19.741 2°58.481 7.570417 3.241193 31.197801 14.084597
2004-03-26 12:47:01 51°19.836 2°58.555 7.583758 3.244562 31.218622 14.185725
2004-03-26 12:48:02 51°19.926 2°58.657 7.629654 3.255514 31.225137 12.028324
2004-03-26 12:49:03 51°19.98 2°58.74 7.577818 3.262254 31.346607 11.017042
2004-03-26 12:50:01 51°19.995 2°58.8 7.561602 3.259622 31.353391 12.062033
2004-03-26 12:51:01 51°20.014 2°58.896 7.619096 3.259517 31.339396 10.241725
2004-03-26 12:52:01 51°20.151 2°59.047 7.57027 3.261201 31.318768 10.376563
2004-03-26 12:53:02 51°20.313 2°59.27 7.525843 3.255305 31.351327 13.073315
2004-03-26 12:54:02 51°20.465 2°59.514 7.557656 3.259411 31.339031 11.488973
2004-03-26 12:55:02 51°20.623 2°59.749 7.555416 3.260465 31.387398 12.062033
2004-03-26 12:56:01 51°20.793 2°59.954 7.533396 3.264256 31.422516 12.432836
2004-03-26 12:57:02 51°20.967 3°0.169 7.499863 3.260886 31.415445 11.859777
2004-03-26 12:58:04 51°21.145 3°0.387 7.493915 3.255516 31.386998 13.140734
2004-03-26 12:59:02 51°21.31 3°0.594 7.436553 3.25857 31.412008 11.792358
2004-03-26 13:00:02 51°21.482 3°0.812 7.416151 3.258992 31.498158 13.174443
2004-03-26 13:01:02 51°21.654 3°1.025 7.416786 3.282266 31.640676 12.601383
2004-03-26 13:02:02 51°21.823 3°1.237 7.407754 3.284795 31.773831 12.871059
2004-03-26 13:03:01 51°21.989 3°1.449 7.370395 3.276053 31.693231 12.062033
2004-03-26 13:04:02 51°22.148 3°1.692 7.362432 3.266891 31.621928 12.23058
2004-03-26 13:05:02 51°22.306 3°1.929 7.392618 3.262362 31.546507 11.826067
2004-03-26 13:06:02 51°22.462 3°2.168 7.487577 3.260361 31.525837 13.107024
2004-03-26 13:07:02 51°22.618 3°2.408 7.455582 3.261413 31.451519 11.253007
2004-03-26 13:08:02 51°22.775 3°2.647 7.532908 3.257096 31.440438 11.488973
2004-03-26 13:09:02 51°22.93 3°2.896 7.466997 3.282476 31.596278 11.050751
2004-03-26 13:10:01 51°23.083 3°3.146 7.4488 3.310808 31.985267 11.623811
2004-03-26 13:11:02 51°23.242 3°3.405 7.475678 3.311545 32.000921 11.65752
2004-03-26 13:12:02 51°23.401 3°3.663 7.556 3.322709 32.035895 11.286717
2004-03-26 13:13:02 51°23.559 3°3.921 7.566764 3.330081 32.077499 9.97205
2004-03-26 13:14:02 51°23.716 3°4.179 7.535539 3.349462 32.299412 9.601247
2004-03-26 13:15:02 51°23.874 3°4.437 7.504982 3.355677 32.409744 11.724939
2004-03-26 13:16:02 51°24.03 3°4.692 7.309401 3.345145 32.362715 10.443982
2004-03-26 13:17:02 51°24.185 3°4.95 7.259409 3.320289 32.249461 12.297999
2004-03-26 13:18:02 51°24.338 3°5.206 7.179252 3.307546 32.18129 12.904768
2004-03-26 13:19:01 51°24.488 3°5.457 7.161121 3.297646 32.118472 12.567674
2004-03-26 13:20:04 51°24.648 3°5.725 7.125088 3.28585 32.014652 13.646375
2004-03-26 13:21:02 51°24.795 3°5.973 7.046579 3.276688 31.965044 14.084597
2004-03-26 13:22:02 51°24.946 3°6.226 7.035187 3.268369 31.918959 15.129589
2004-03-26 13:23:02 51°25.095 3°6.479 7.033125 3.269738 31.932992 15.500392
2004-03-26 13:24:02 51°25.242 3°6.732 6.979328 3.26384 31.895029 15.163298
2004-03-26 13:25:02 51°25.404 3°6.954 6.968907 3.253836 31.829763 15.567811
2004-03-26 13:26:02 51°25.568 3°7.173 7.021485 3.252677 31.790595 14.859913
2004-03-26 13:27:02 51°25.733 3°7.392 6.997412 3.254151 31.794829 14.48911
2004-03-26 13:28:01 51°25.893 3°7.607 6.997167 3.25173 31.792846 15.264426
2004-03-26 13:29:02 51°26.057 3°7.829 7.039312 3.246885 31.770088 13.444118
2004-03-26 13:30:01 51°26.213 3°8.046 7.024923 3.247095 31.715342 12.533965
2004-03-26 13:31:02 51°26.368 3°8.259 7.070485 3.245199 31.643488 12.500255
2004-03-26 13:32:02 51°26.449 3°8.364 7.360771 3.25278 31.554305 11.488973
2004-03-26 13:33:02 51°26.446 3°8.386 7.031749 3.259099 31.624535 10.949623
2004-03-26 13:34:02 51°26.425 3°8.403 7.012938 3.254151 31.794829 13.208153
2004-03-26 13:35:03 51°26.397 3°8.466 7.28441 3.252044 31.691775 12.668802
2004-03-26 13:36:02 51°26.367 3°8.562 7.346894 3.262679 31.595969 8.994477
2004-03-26 13:37:01 51°26.338 3°8.638 7.340052 3.26331 31.600441 10.376563
2004-03-26 13:38:02 51°26.308 3°8.705 7.330277 3.264574 31.624778 10.174306
2004-03-26 13:39:02 51°26.28 3°8.768 7.502008 3.277948 31.614449 8.758512
2004-03-26 13:40:02 51°26.253 3°8.829 7.539291 3.281739 31.61592 8.657383
2004-03-26 13:41:02 51°26.227 3°8.889 7.528913 3.280791 31.611918 9.264153
2004-03-26 13:42:02 51°26.197 3°8.95 7.505811 3.278474 31.595589 8.792221
2004-03-26 13:43:01 51°26.154 3°9 7.324019 3.267838 31.596738 10.275435
2004-03-26 13:44:02 51°26.096 3°9.021 7.384804 3.266259 31.609 9.163024
2004-03-26 13:45:02 51°26.041 3°8.997 7.355885 3.272577 31.567757 10.106888
2004-03-26 13:46:01 51°26.005 3°8.947 7.334529 3.261626 31.612374 10.882204
2004-03-26 13:47:02 51°25.989 3°8.875 7.356227 3.265206 31.597708 10.54511
2004-03-26 13:48:01 51°25.995 3°8.802 7.336337 3.270471 31.610354 9.736084
2004-03-26 13:49:02 51°26.013 3°8.733 7.321086 3.269734 31.648577 10.781076
2004-03-26 13:50:02 51°26.041 3°8.685 7.149014 3.267103 31.72918 11.488973
2004-03-26 13:51:02 51°26.074 3°8.643 7.241692 3.267419 31.74188 12.331708
2004-03-26 13:52:02 51°26.103 3°8.589 7.391397 3.271315 31.707943 11.185589
2004-03-26 13:53:02 51°26.136 3°8.543 7.495329 3.277948 31.635905 10.174306
2004-03-26 13:54:02 51°26.173 3°8.512 7.269587 3.278686 31.695267 9.938341
2004-03-26 13:55:02 51°26.21 3°8.48 7.191059 3.269209 31.744096 10.747366
2004-03-26 13:56:04 51°26.253 3°8.466 7.181212 3.265945 31.762472 12.062033
2004-03-26 13:57:02 51°26.293 3°8.469 7.205215 3.267314 31.784222 10.342853
2004-03-26 13:58:02 51°26.335 3°8.471 7.132885 3.269526 31.80884 9.533828
2004-03-26 13:59:01 51°26.377 3°8.464 7.121999 3.268262 31.832595 9.129315
2004-03-26 14:00:03 51°26.423 3°8.466 7.071909 3.267841 31.860045 10.342853
2004-03-26 14:01:02 51°26.465 3°8.499 7.054729 3.266578 31.882355 11.893486
2004-03-26 14:02:02 51°26.507 3°8.532 7.076178 3.266578 31.88392 10.713657
2004-03-26 14:03:02 51°26.55 3°8.564 7.043044 3.267526 31.900438 9.837212
2004-03-26 14:04:02 51°26.594 3°8.598 7.005176 3.268053 31.919461 10.275435
2004-03-26 14:05:02 51°26.639 3°8.619 7.014264 3.267105 31.946879 10.241725
2004-03-26 14:06:02 51°26.684 3°8.623 7.026593 3.268474 31.944426 10.174306
2004-03-26 14:07:02 51°26.728 3°8.611 7.051636 3.269317 31.963768 10.410272
2004-03-26 14:08:02 51°26.764 3°8.604 7.028803 3.270475 31.957456 10.612529
2004-03-26 14:09:02 51°26.783 3°8.619 7.02561 3.27216 31.964704 10.309144
2004-03-26 14:10:02 51°26.79 3°8.641 7.00208 3.271318 31.976797 10.983332
2004-03-26 14:11:02 51°26.809 3°8.67 7.017555 3.271634 31.992019 11.556392
2004-03-26 14:12:02 51°26.849 3°8.721 7.027035 3.273845 31.993952 11.11817
2004-03-26 14:13:02 51°26.872 3°8.818 7.041865 3.275952 32.005752 12.399127
2004-03-26 14:14:02 51°26.865 3°8.937 7.005814 3.275952 32.030149 11.253007
2004-03-26 14:15:04 51°26.824 3°9.054 7.036611 3.275741 32.023142 11.151879
2004-03-26 14:16:02 51°26.769 3°9.13 7.018538 3.276584 32.029908 11.185589
2004-03-26 14:17:02 51°26.706 3°9.18 6.997806 3.275847 32.038462 10.241725
2004-03-26 14:18:04 51°26.64 3°9.204 6.973724 3.274688 32.044825 11.151879
2004-03-26 14:19:03 51°26.578 3°9.206 6.981294 3.274056 32.0293 10.477691
2004-03-26 14:20:02 51°26.524 3°9.187 6.992253 3.273951 32.035253 10.578819
2004-03-26 14:21:02 51°26.477 3°9.154 6.977607 3.273109 32.033213 11.826067
2004-03-26 14:22:04 51°26.439 3°9.113 6.983997 3.272055 32.017061 11.253007
2004-03-26 14:23:02 51°26.413 3°9.069 6.986356 3.271108 32.002057 11.11817
2004-03-26 14:24:02 51°26.393 3°9.024 6.97864 3.27016 31.992568 11.522683
2004-03-26 14:25:02 51°26.377 3°8.978 6.967383 3.268054 31.984691 11.556392
2004-03-26 14:26:04 51°26.37 3°8.93 6.905806 3.264684 31.985951 12.533965
2004-03-26 14:27:02 51°26.366 3°8.855 6.932913 3.263736 31.98828 11.994614
2004-03-26 14:28:02 51°26.362 3°8.763 6.94688 3.266369 31.971927 12.028324
2004-03-26 14:29:04 51°26.362 3°8.666 6.968858 3.264052 31.960179 12.871059
2004-03-26 14:30:02 51°26.365 3°8.576 6.987486 3.263314 31.918365 12.668802
2004-03-26 14:31:02 51°26.37 3°8.483 6.890107 3.260155 31.917118 12.972187
2004-03-26 14:32:02 51°26.369 3°8.388 6.981294 3.259102 31.931658 13.578956
2004-03-26 14:33:02 51°26.365 3°8.296 7.054778 3.264051 31.902016 12.297999
2004-03-26 14:34:04 51°26.367 3°8.218 7.123372 3.269948 31.895315 11.151879
2004-03-26 14:35:02 51°26.375 3°8.15 7.155141 3.274055 31.892775 10.915913
2004-03-26 14:36:02 51°26.385 3°8.078 7.180232 3.278162 31.891817 9.904631
2004-03-26 14:37:02 51°26.397 3°8.012 7.1321 3.281532 31.93284 10.679947
2004-03-26 14:38:02 51°26.409 3°7.941 7.038674 3.278689 31.998452 10.275435
2004-03-26 14:39:02 51°26.421 3°7.871 7.041865 3.27532 31.994979 10.342853
2004-03-26 14:40:04 51°26.431 3°7.822 7.075835 3.274793 31.987707 10.309144
2004-03-26 14:41:02 51°26.435 3°7.794 7.125529 3.277846 31.946226 10.848494
2004-03-26 14:42:02 51°26.429 3°7.679 7.124401 3.27732 31.97972 10.174306
2004-03-26 14:43:02 51°26.337 3°7.427 7.122979 3.278268 31.944514 9.97205
2004-03-26 14:44:02 51°26.22 3°7.135 7.137837 3.276583 31.941185 11.859777
2004-03-26 14:45:02 51°26.089 3°6.852 7.027968 3.27732 31.997777 12.264289
2004-03-26 14:46:02 51°25.929 3°6.606 7.038183 3.278268 32.012749 10.781076
2004-03-26 14:47:04 51°25.755 3°6.363 7.065086 3.275741 31.997182 11.219298
2004-03-26 14:48:04 51°25.58 3°6.138 7.078436 3.276478 31.962766 11.826067
2004-03-26 14:49:02 51°25.408 3°5.93 7.038477 3.277215 32.002138 10.915913
2004-03-26 14:50:02 51°25.227 3°5.72 7.07927 3.276057 31.985674 11.455264
2004-03-26 14:51:02 51°25.042 3°5.519 6.99643 3.280585 32.017386 12.028324
2004-03-26 14:52:02 51°24.861 3°5.32 6.984881 3.275741 32.049935 12.432836
2004-03-26 14:53:02 51°24.679 3°5.122 7.013429 3.275952 32.044333 13.275571
2004-03-26 14:54:02 51°24.496 3°4.928 7.075491 3.281007 32.049469 11.185589
2004-03-26 14:55:04 51°24.306 3°4.727 7.144259 3.289958 32.097529 11.017042
2004-03-26 14:56:02 51°24.128 3°4.538 7.28485 3.306387 32.187669 11.792358
2004-03-26 14:57:04 51°23.942 3°4.336 7.43909 3.338615 32.385341 11.017042
2004-03-26 14:58:02 51°23.769 3°4.154 7.617977 3.362419 32.511872 11.11817
2004-03-26 14:59:02 51°23.593 3°3.966 7.559994 3.389278 32.726442 10.612529
2004-03-26 15:00:02 51°23.417 3°3.779 7.644881 3.38222 32.642155 10.612529
2004-03-26 15:01:02 51°23.25 3°3.577 7.612672 3.358414 32.335817 10.309144
2004-03-26 15:02:04 51°23.075 3°3.372 7.537294 3.341773 32.202407 10.848494
2004-03-26 15:03:02 51°22.917 3°3.171 7.488016 3.343248 32.285222 12.500255
2004-03-26 15:04:02 51°22.758 3°2.955 7.538073 3.330293 32.176106 11.151879
2004-03-26 15:05:02 51°22.6 3°2.739 7.518727 3.310702 31.912207 11.017042
2004-03-26 15:06:04 51°22.435 3°2.521 7.477385 3.301644 31.837765 10.983332
2004-03-26 15:07:02 51°22.28 3°2.316 7.45968 3.297116 31.833273 12.028324
2004-03-26 15:08:02 51°22.128 3°2.091 7.535393 3.298907 31.850118 10.949623
2004-03-26 15:09:02 51°21.977 3°1.86 7.499425 3.295115 31.8003 10.781076
2004-03-26 15:10:02 51°21.829 3°1.626 7.554977 3.289954 31.768963 11.354136
2004-03-26 15:11:02 51°21.68 3°1.393 7.576503 3.295009 31.743044 12.365418
2004-03-26 15:12:02 51°21.53 3°1.16 7.626589 3.29227 31.649539 11.421554
2004-03-26 15:13:04 51°21.375 3°0.917 7.68208 3.29406 31.657924 11.08446
2004-03-26 15:14:04 51°21.226 3°0.684 7.69987 3.302906 31.691807 11.65752
2004-03-26 15:15:02 51°21.083 3°0.458 7.732424 3.302801 31.6823 11.590101
2004-03-26 15:16:02 51°20.974 3°0.282 7.702495 3.309647 31.732962 12.028324
2004-03-26 15:17:02 51°20.936 3°0.232 7.704536 3.309858 31.772628 11.590101
2004-03-26 15:18:04 51°20.917 3°0.243 7.702495 3.310595 31.774355 11.387845
2004-03-26 15:19:02 51°20.894 3°0.229 7.721202 3.311122 31.77537 10.410272
2004-03-26 15:20:02 51°20.868 3°0.18 7.729946 3.312491 31.769297 10.612529
2004-03-26 15:21:04 51°20.846 3°0.125 7.746217 3.311858 31.75418 11.455264
2004-03-26 15:22:02 51°20.824 3°0.075 7.737718 3.311964 31.748431 11.994614
2004-03-26 15:23:02 51°20.806 3°0.019 7.730578 3.308804 31.724007 11.826067
2004-03-26 15:24:04 51°20.792 2°59.957 7.728683 3.308383 31.725631 11.960905
2004-03-26 15:25:02 51°20.783 2°59.897 7.731792 3.30912 31.731942 11.590101
2004-03-26 15:26:04 51°20.776 2°59.834 7.753356 3.311437 31.743598 11.354136
2004-03-26 15:27:04 51°20.767 2°59.774 7.777145 3.315229 31.764808 11.253007
2004-03-26 15:28:04 51°20.756 2°59.714 7.776466 3.318915 31.789461 11.455264
2004-03-26 15:29:02 51°20.744 2°59.656 7.774912 3.3206 31.811938 12.365418
2004-03-26 15:30:04 51°20.728 2°59.592 7.779524 3.322917 31.834256 11.050751
2004-03-26 15:31:02 51°20.713 2°59.531 7.777776 3.325024 31.854337 10.915913
2004-03-26 15:32:04 51°20.702 2°59.463 7.782193 3.325972 31.8667 11.286717
2004-03-26 15:33:02 51°20.694 2°59.4 7.771466 3.326814 31.879478 11.387845
2004-03-26 15:34:04 51°20.689 2°59.331 7.774767 3.327762 31.891081 11.151879
2004-03-26 15:35:02 51°20.689 2°59.265 7.788843 3.328605 31.889314 11.522683
2004-03-26 15:36:04 51°20.689 2°59.193 7.79093 3.329553 31.890963 10.612529
2004-03-26 15:37:04 51°20.685 2°59.124 7.789182 3.330185 31.903799 11.017042
2004-03-26 15:38:04 51°20.675 2°59.058 7.777 3.330922 31.910865 10.915913
2004-03-26 15:39:04 51°20.66 2°58.995 7.766126 3.331027 31.92501 10.949623
2004-03-26 15:40:04 51°20.641 2°58.935 7.767679 3.332397 31.945697 11.758648
2004-03-26 15:41:02 51°20.619 2°58.881 7.777048 3.33524 31.969785 11.185589
2004-03-26 15:42:02 51°20.596 2°58.825 7.790735 3.339664 32.005281 11.65752
2004-03-26 15:43:02 51°20.581 2°58.763 7.78826 3.343456 32.036353 11.859777
2004-03-26 15:44:02 51°20.578 2°58.696 7.768407 3.343456 32.054044 10.410272
2004-03-26 15:45:02 51°20.585 2°58.625 7.76161 3.343667 32.062442 11.219298
2004-03-26 15:46:02 51°20.602 2°58.554 7.782145 3.345247 32.073852 11.590101
2004-03-26 15:47:04 51°20.626 2°58.495 7.798791 3.347037 32.080568 10.747366
2004-03-26 15:48:02 51°20.647 2°58.468 7.812425 3.346616 32.056855 10.039469
2004-03-26 15:49:02 51°20.668 2°58.445 7.815578 3.345562 32.039519 11.286717
2004-03-26 15:50:02 51°20.631 2°58.312 7.812085 3.344404 32.03797 10.54511
2004-03-26 15:51:02 51°20.492 2°58.102 7.849673 3.349459 32.086298 11.994614
2004-03-26 15:52:04 51°20.337 2°57.872 7.8568 3.342507 31.975645 12.399127
2004-03-26 15:53:03 51°20.188 2°57.651 7.81553 3.33682 31.937502 12.399127
2004-03-26 15:54:02 51°20.034 2°57.439 7.832313 3.336082 31.9182 11.927195
2004-03-26 15:55:03 51°19.875 2°57.218 7.793647 3.329026 31.867019 12.80364
2004-03-26 15:56:04 51°19.714 2°56.999 7.819896 3.328394 31.874835 12.567674
2004-03-26 15:57:02 51°19.562 2°56.789 7.762824 3.333134 31.942027 13.174443
2004-03-26 15:58:02 51°19.405 2°56.572 7.710173 3.339665 32.06532 12.736221
2004-03-26 15:59:03 51°19.247 2°56.35 7.672065 3.339876 32.086086 14.320563
2004-03-26 16:00:03 51°19.09 2°56.133 7.647459 3.337875 32.095667 13.949759
2004-03-26 16:01:02 51°18.933 2°55.92 7.631941 3.334715 32.09523 15.331845
2004-03-26 16:02:02 51°18.774 2°55.703 7.652031 3.335347 32.084949 16.477965
2004-03-26 16:03:04 51°18.603 2°55.49 7.670023 3.337032 32.092095 15.365554
2004-03-26 16:04:03 51°18.436 2°55.294 7.689226 3.338823 32.091085 15.837486
2004-03-26 16:05:03 51°18.268 2°55.091 7.678386 3.342298 32.123494 16.073452
2004-03-26 16:06:02 51°18.1 2°54.889 7.668467 3.346512 32.180027 15.466683
2004-03-26 16:07:03 51°17.926 2°54.679 7.676636 3.35083 32.22764 16.579093
2004-03-26 16:08:02 51°17.756 2°54.481 7.697003 3.359467 32.301894 17.489247
2004-03-26 16:09:02 51°17.579 2°54.291 7.720425 3.372739 32.434117 17.354409
2004-03-26 16:10:03 51°17.397 2°54.101 7.727955 3.390119 32.592944 16.983606
2004-03-26 16:11:02 51°17.223 2°53.924 7.761659 3.408764 32.799829 15.837486
2004-03-26 16:12:04 51°17.036 2°53.763 7.88438 3.389275 32.480862 14.219435
2004-03-26 16:13:04 51°16.829 2°53.671 7.921925 3.377266 32.287444 13.073315
2004-03-26 16:14:02 51°16.619 2°53.666 7.901774 3.356305 32.067533 15.466683
2004-03-26 16:15:04 51°16.394 2°53.723 7.874154 3.358306 32.115618 14.320563
2004-03-26 16:16:02 51°16.18 2°53.771 7.921489 3.365153 32.182857 14.623947
2004-03-26 16:17:02 51°15.959 2°53.841 7.945701 3.376845 32.27063 14.253144
2004-03-26 16:18:02 51°15.74 2°53.914 7.968741 3.42214 32.719276 15.365554
2004-03-26 16:19:02 51°15.523 2°53.985 7.892763 3.461118 33.198341 14.623947
2004-03-26 16:20:02 51°15.305 2°54.067 7.953301 3.450373 33.067277 13.309281
2004-03-26 16:21:03 51°15.084 2°54.17 7.991629 3.456272 33.084175 15.466683
2004-03-26 16:22:02 51°14.887 2°54.345 8.059034 3.459642 33.06474 14.421691
2004-03-26 16:23:02 51°14.685 2°54.517 8.372115 3.459853 33.053581 8.994477
2004-03-26 16:24:03 51°14.503 2°54.757 8.472505 3.460485 33.063439 8.589965
2004-03-26 16:25:03 51°14.36 2°55.034 8.577581 3.460906 33.06397 7.949486
2004-03-26 16:26:02 51°14.251 2°55.261 8.693063 3.461327 33.057414 7.275298
2004-03-26 16:27:03 51°14.143 2°55.407 8.816268 3.461959 33.050736 6.837076
2004-03-26 16:28:03 51°14.037 2°55.498 8.898943 3.463539 33.054899 6.60111
2004-03-26 16:29:03 51°13.929 2°55.575 9.006376 3.466067 33.057312 6.398853